KBTP/BTP METAR and TAF weather

Enter ICAO airport designator
Station Type Date Time Source
KBTP METAR 2019/10/21 21:56 UTC NOAA

KBTP 212156Z AUTO 12006KT 10SM FEW085 19/08 A2989 RMK AO2 SLP127 T01890078


Station Type Date Time Source
KBTP Decoded METAR 2019/10/21 21:56 UTC NOAA

Butler, Butler County Airport/K W Scholter Field, PA, United States (KBTP) 40-47N 079-57W
Oct 21, 2019 - 05:56 PM EDT / 2019.10.21 2156 UTC
Wind: from the ESE (120 degrees) at 7 MPH (6 KT):0
Visibility: 10 mile(s):0
Sky conditions: mostly clear
Temperature: 66.0 F (18.9 C)
Dew Point: 46.0 F (7.8 C)
Relative Humidity: 48%
Pressure (altimeter): 29.89 in. Hg (1012 hPa)
ob: KBTP 212156Z AUTO 12006KT 10SM FEW085 19/08 A2989 RMK AO2 SLP127 T01890078
cycle: 22

Station Type Date Time Source
KBTP TAF UTC NOAA

Error!

Example: see airport list